createdAt,value
2023-05-12T00:00:53.686Z,0.00
2023-05-12T00:01:53.752Z,0.00
2023-05-12T00:02:53.936Z,0.00
2023-05-12T00:03:54.309Z,0.00
2023-05-12T00:04:54.171Z,0.00
2023-05-12T00:05:54.312Z,0.00
2023-05-12T00:06:54.730Z,0.00
2023-05-12T00:07:54.516Z,0.00
2023-05-12T00:08:54.670Z,0.00
2023-05-12T00:09:54.792Z,0.00
2023-05-12T00:10:54.937Z,0.00
2023-05-12T00:11:55.147Z,0.00
2023-05-12T00:12:55.327Z,0.00
2023-05-12T00:13:55.444Z,0.00
2023-05-12T00:14:55.446Z,0.00
2023-05-12T00:15:55.593Z,0.00
2023-05-12T00:16:55.766Z,0.00
2023-05-12T00:17:55.883Z,0.00
2023-05-12T00:18:55.979Z,0.00
2023-05-12T00:19:56.108Z,0.00
2023-05-12T00:20:56.178Z,0.00
2023-05-12T00:21:56.278Z,0.00
2023-05-12T00:22:56.450Z,0.00
2023-05-12T00:23:56.617Z,0.00
2023-05-12T00:24:56.685Z,0.00
2023-05-12T00:25:56.916Z,0.00
2023-05-12T00:26:56.973Z,0.00
2023-05-12T00:27:57.109Z,0.00
2023-05-12T00:28:57.220Z,0.00
2023-05-12T00:29:57.362Z,0.00
2023-05-12T00:30:57.510Z,0.00
2023-05-12T00:31:57.676Z,0.00
2023-05-12T00:32:57.802Z,0.00
2023-05-12T00:33:57.911Z,0.00
2023-05-12T00:34:58.596Z,0.00
2023-05-12T00:35:58.122Z,0.00
2023-05-12T00:36:58.316Z,0.00
2023-05-12T00:37:58.524Z,0.00
2023-05-12T00:38:58.571Z,0.00
2023-05-12T00:39:58.761Z,0.00
2023-05-12T00:40:58.820Z,0.00
2023-05-12T00:41:58.949Z,0.00
2023-05-12T00:42:59.124Z,0.00
2023-05-12T00:43:59.209Z,0.00
2023-05-12T00:44:59.351Z,0.00
2023-05-12T00:45:59.550Z,0.00
2023-05-12T00:46:59.571Z,0.00
2023-05-12T00:47:59.803Z,0.00
2023-05-12T00:48:59.859Z,0.00
2023-05-12T00:49:59.951Z,0.00
2023-05-12T00:51:00.027Z,0.00
2023-05-12T00:52:00.178Z,0.00
2023-05-12T00:53:00.442Z,0.00
2023-05-12T00:54:00.451Z,0.00
2023-05-12T00:55:00.604Z,0.00
2023-05-12T00:56:00.852Z,0.00
2023-05-12T00:57:00.891Z,0.00
2023-05-12T00:58:01.073Z,0.00
2023-05-12T00:59:01.248Z,0.00
2023-05-12T01:00:01.328Z,0.00
2023-05-12T01:01:01.411Z,0.00
2023-05-12T01:02:01.544Z,0.00
2023-05-12T01:03:01.830Z,0.00
2023-05-12T01:04:01.784Z,0.00
2023-05-12T01:05:01.913Z,0.00
2023-05-12T01:06:02.100Z,0.00
2023-05-12T01:07:02.233Z,0.00
2023-05-12T01:08:02.344Z,0.00
2023-05-12T01:09:02.449Z,0.00
2023-05-12T01:10:02.567Z,0.00
2023-05-12T01:11:02.708Z,0.00
2023-05-12T01:12:02.789Z,0.00
2023-05-12T01:13:02.916Z,0.00
2023-05-12T01:14:03.188Z,0.00
2023-05-12T01:15:03.211Z,0.00
2023-05-12T01:16:03.381Z,0.00
2023-05-12T01:17:03.476Z,0.00
2023-05-12T01:18:03.598Z,0.00
2023-05-12T01:19:03.825Z,0.00
2023-05-12T01:20:03.883Z,0.00
2023-05-12T01:21:04.004Z,0.00
2023-05-12T01:22:04.115Z,0.00
2023-05-12T01:23:04.198Z,0.00
2023-05-12T01:24:04.364Z,0.00
2023-05-12T01:25:04.622Z,0.00
2023-05-12T01:26:05.298Z,0.00
2023-05-12T01:27:04.758Z,0.00
2023-05-12T01:28:04.962Z,0.00
2023-05-12T01:29:05.024Z,0.00
2023-05-12T01:30:05.237Z,0.00
2023-05-12T01:31:05.319Z,0.00
2023-05-12T01:32:05.426Z,0.00
2023-05-12T01:33:05.594Z,0.00
2023-05-12T01:34:05.675Z,0.00
2023-05-12T01:35:05.838Z,0.00
2023-05-12T01:36:05.944Z,0.00
2023-05-12T01:37:06.076Z,0.00
2023-05-12T01:38:06.191Z,0.00
2023-05-12T01:39:06.354Z,0.00
2023-05-12T01:40:06.501Z,0.00
2023-05-12T01:41:06.589Z,0.00
2023-05-12T01:42:06.811Z,0.00
2023-05-12T01:43:06.898Z,0.00
2023-05-12T01:44:07.002Z,0.00
2023-05-12T01:45:07.112Z,0.00
2023-05-12T01:46:07.358Z,0.00
2023-05-12T01:47:07.329Z,0.00
2023-05-12T01:48:07.488Z,0.00
2023-05-12T01:49:07.601Z,0.00
2023-05-12T01:50:07.785Z,0.00
2023-05-12T01:51:07.932Z,0.00
2023-05-12T01:52:08.000Z,0.00
2023-05-12T01:53:08.090Z,0.00
2023-05-12T01:54:08.218Z,0.00
2023-05-12T01:55:08.338Z,0.00
2023-05-12T01:56:08.554Z,0.00
2023-05-12T01:57:08.646Z,0.00
2023-05-12T01:58:08.735Z,0.00
2023-05-12T01:59:08.952Z,0.00
2023-05-12T02:00:09.025Z,0.00
2023-05-12T02:01:09.193Z,0.00
2023-05-12T02:02:09.376Z,0.00
2023-05-12T02:03:09.541Z,0.00
2023-05-12T02:04:09.669Z,0.00
2023-05-12T02:05:09.674Z,0.00
2023-05-12T02:06:09.924Z,0.00
2023-05-12T02:07:09.941Z,0.00
2023-05-12T02:08:10.122Z,0.00
2023-05-12T02:09:10.167Z,0.00
2023-05-12T02:10:10.294Z,0.00
2023-05-12T02:11:10.436Z,0.00
2023-05-12T02:12:10.530Z,0.00
2023-05-12T02:13:10.691Z,0.00
2023-05-12T02:14:10.786Z,0.00
2023-05-12T02:15:10.921Z,0.00
2023-05-12T02:16:11.187Z,0.00
2023-05-12T02:17:11.220Z,0.00
2023-05-12T02:18:11.322Z,0.00
2023-05-12T02:19:11.456Z,0.00
2023-05-12T02:20:11.538Z,0.00
2023-05-12T02:21:12.027Z,0.00
2023-05-12T02:22:11.818Z,0.00
2023-05-12T02:23:11.961Z,0.00
2023-05-12T02:24:14.219Z,0.00
2023-05-12T02:25:12.182Z,0.00
2023-05-12T02:26:12.537Z,0.00
2023-05-12T02:27:12.429Z,0.00
2023-05-12T02:28:12.617Z,0.00
2023-05-12T02:29:12.751Z,0.00
2023-05-12T02:30:12.869Z,0.00
2023-05-12T02:31:12.991Z,0.00
2023-05-12T02:32:13.142Z,0.00
2023-05-12T02:33:13.231Z,0.00
2023-05-12T02:34:13.340Z,0.00
2023-05-12T02:35:13.495Z,0.00
2023-05-12T02:36:13.681Z,0.00
2023-05-12T02:37:13.738Z,0.00
2023-05-12T02:38:13.886Z,0.00
2023-05-12T02:39:14.017Z,0.00
2023-05-12T02:40:14.100Z,0.00
2023-05-12T02:41:14.416Z,0.00
2023-05-12T02:42:14.371Z,0.00
2023-05-12T02:43:14.736Z,0.00
2023-05-12T02:44:14.644Z,0.00
2023-05-12T02:45:14.789Z,0.00
2023-05-12T02:46:15.056Z,0.00
2023-05-12T02:47:14.975Z,0.00
2023-05-12T02:48:15.178Z,0.00
2023-05-12T02:49:15.263Z,0.00
2023-05-12T02:50:15.417Z,0.00
2023-05-12T02:51:15.560Z,0.00
2023-05-12T02:52:15.660Z,0.00
2023-05-12T02:53:15.879Z,0.00
2023-05-12T02:54:15.943Z,0.00
2023-05-12T02:55:16.064Z,0.00
2023-05-12T02:56:16.175Z,0.00
2023-05-12T02:57:16.304Z,0.00
2023-05-12T02:58:16.497Z,0.00
2023-05-12T02:59:16.573Z,0.00
2023-05-12T03:00:16.730Z,0.00
2023-05-12T03:01:16.881Z,0.00
2023-05-12T03:02:17.033Z,0.00
2023-05-12T03:03:17.083Z,0.00
2023-05-12T03:04:17.195Z,0.00
2023-05-12T03:05:17.311Z,0.00
2023-05-12T03:06:17.430Z,0.00
2023-05-12T03:07:17.567Z,0.00
2023-05-12T03:08:17.666Z,0.00
2023-05-12T03:09:17.862Z,0.00
2023-05-12T03:10:18.186Z,0.00
2023-05-12T03:11:18.014Z,0.00
2023-05-12T03:12:18.111Z,0.00
2023-05-12T03:13:18.245Z,0.00
2023-05-12T03:14:18.447Z,0.00
2023-05-12T03:15:18.558Z,0.00
2023-05-12T03:16:19.722Z,0.00
2023-05-12T03:17:18.891Z,0.00
2023-05-12T03:18:18.937Z,0.00
2023-05-12T03:19:19.094Z,0.00
2023-05-12T03:20:19.405Z,0.00
2023-05-12T03:21:19.305Z,0.00
2023-05-12T03:22:19.606Z,0.00
2023-05-12T03:23:19.619Z,0.00
2023-05-12T03:24:19.751Z,0.00
2023-05-12T03:25:19.858Z,0.00
2023-05-12T03:26:20.089Z,0.00
2023-05-12T03:27:20.116Z,0.00
2023-05-12T03:28:20.250Z,0.00
2023-05-12T03:29:20.406Z,0.00
2023-05-12T03:30:20.753Z,0.00
2023-05-12T03:31:20.681Z,0.00
2023-05-12T03:32:20.865Z,0.00
2023-05-12T03:33:20.903Z,0.00
2023-05-12T03:34:21.016Z,0.00
2023-05-12T03:35:21.237Z,0.00
2023-05-12T03:36:21.275Z,0.00
2023-05-12T03:37:21.438Z,0.00
2023-05-12T03:38:21.576Z,0.00
2023-05-12T03:39:21.795Z,0.00
2023-05-12T03:40:22.078Z,0.00
2023-05-12T03:41:22.043Z,0.00
2023-05-12T03:42:22.104Z,0.00
2023-05-12T03:43:22.365Z,0.00
2023-05-12T03:44:22.410Z,0.00
2023-05-12T03:45:22.582Z,0.00
2023-05-12T03:46:22.948Z,0.00
2023-05-12T03:47:22.965Z,0.00
2023-05-12T03:48:22.986Z,0.00
2023-05-12T03:49:23.098Z,0.00
2023-05-12T03:50:23.170Z,0.00
2023-05-12T03:51:23.331Z,0.00
2023-05-12T03:52:23.514Z,0.00
2023-05-12T03:53:23.554Z,5.62
2023-05-12T03:54:23.789Z,5.62
2023-05-12T03:55:23.803Z,5.62
2023-05-12T03:56:23.895Z,5.62
2023-05-12T03:57:24.053Z,5.62
2023-05-12T03:58:24.164Z,5.62
2023-05-12T03:59:24.290Z,5.62
2023-05-12T04:00:24.462Z,5.62
2023-05-12T04:01:24.607Z,5.62
2023-05-12T04:02:24.795Z,5.62
2023-05-12T04:03:25.091Z,5.62
2023-05-12T04:04:24.941Z,5.62
2023-05-12T04:05:25.133Z,11.25
2023-05-12T04:06:25.354Z,11.25
2023-05-12T04:07:25.335Z,11.25
2023-05-12T04:08:25.500Z,11.25
2023-05-12T04:09:25.668Z,11.25
2023-05-12T04:10:25.780Z,11.25
2023-05-12T04:11:25.894Z,5.62
2023-05-12T04:12:26.005Z,5.62
2023-05-12T04:13:26.162Z,11.25
2023-05-12T04:14:35.231Z,11.25
2023-05-12T04:15:27.445Z,11.25
2023-05-12T04:16:27.666Z,11.25
2023-05-12T04:17:26.758Z,11.25
2023-05-12T04:18:26.872Z,11.25
2023-05-12T04:19:26.897Z,11.25
2023-05-12T04:20:27.081Z,11.25
2023-05-12T04:21:27.240Z,11.25
2023-05-12T04:22:27.313Z,11.25
2023-05-12T04:23:27.590Z,11.25
2023-05-12T04:24:27.576Z,11.25
2023-05-12T04:25:27.841Z,11.25
2023-05-12T04:26:27.913Z,11.25
2023-05-12T04:27:27.947Z,11.25
2023-05-12T04:28:28.155Z,16.88
2023-05-12T04:29:28.271Z,16.88
2023-05-12T04:30:28.360Z,22.50
2023-05-12T04:31:28.573Z,22.50
2023-05-12T04:32:28.649Z,22.50
2023-05-12T04:33:28.724Z,22.50
2023-05-12T04:34:28.838Z,28.12
2023-05-12T04:35:29.005Z,33.75
2023-05-12T04:36:30.047Z,39.38
2023-05-12T04:37:29.182Z,39.38
2023-05-12T04:38:29.324Z,45.00
2023-05-12T04:39:29.506Z,50.62
2023-05-12T04:40:29.586Z,50.62
2023-05-12T04:41:29.805Z,56.25
2023-05-12T04:42:29.850Z,61.88
2023-05-12T04:44:30.176Z,56.25
2023-05-12T04:45:30.282Z,50.62
2023-05-12T04:46:30.485Z,45.00
2023-05-12T04:47:30.603Z,45.00
2023-05-12T04:48:30.674Z,45.00
2023-05-12T04:49:30.783Z,45.00
2023-05-12T04:50:30.921Z,39.38
2023-05-12T04:51:31.051Z,39.38
2023-05-12T04:52:31.260Z,39.38
2023-05-12T04:53:31.326Z,39.38
2023-05-12T04:54:31.467Z,39.38
2023-05-12T04:55:31.650Z,39.38
2023-05-12T04:56:31.792Z,39.38
2023-05-12T04:57:31.882Z,45.00
2023-05-12T04:58:32.007Z,45.00
2023-05-12T04:59:32.145Z,50.62
2023-05-12T05:00:32.470Z,56.25
2023-05-12T05:01:32.530Z,61.88
2023-05-12T05:02:32.611Z,67.50
2023-05-12T05:03:32.811Z,78.75
2023-05-12T05:04:32.784Z,84.38
2023-05-12T05:05:32.933Z,84.38
2023-05-12T05:06:33.071Z,78.75
2023-05-12T05:07:33.296Z,84.38
2023-05-12T05:08:33.380Z,84.38
2023-05-12T05:09:34.984Z,78.75
2023-05-12T05:10:33.613Z,78.75
2023-05-12T05:11:33.839Z,73.12
2023-05-12T05:12:33.929Z,67.50
2023-05-12T05:13:34.071Z,67.50
2023-05-12T05:14:34.168Z,61.88
2023-05-12T05:15:34.308Z,67.50
2023-05-12T05:16:34.450Z,73.12
2023-05-12T05:17:34.594Z,73.12
2023-05-12T05:18:34.698Z,73.12
2023-05-12T05:19:46.142Z,73.12
2023-05-12T05:20:36.003Z,73.12
2023-05-12T05:21:35.061Z,78.75
2023-05-12T05:22:35.138Z,95.62
2023-05-12T05:23:35.249Z,101.25
2023-05-12T05:24:35.386Z,106.88
2023-05-12T05:25:35.564Z,106.88
2023-05-12T05:26:35.644Z,112.50
2023-05-12T05:27:35.816Z,106.88
2023-05-12T05:28:40.855Z,90.00
2023-05-12T05:29:36.050Z,95.62
2023-05-12T05:30:36.220Z,95.62
2023-05-12T05:31:36.345Z,106.88
2023-05-12T05:32:36.484Z,112.50
2023-05-12T05:33:36.650Z,118.12
2023-05-12T05:34:36.805Z,112.50
2023-05-12T05:35:36.981Z,95.62
2023-05-12T05:36:36.992Z,101.25
2023-05-12T05:37:37.170Z,106.88
2023-05-12T05:38:37.308Z,112.50
2023-05-12T05:39:37.424Z,112.50
2023-05-12T05:40:51.547Z,112.50
2023-05-12T05:41:38.640Z,112.50
2023-05-12T05:42:37.771Z,112.50
2023-05-12T05:43:37.964Z,112.50
2023-05-12T05:44:38.061Z,118.12
2023-05-12T05:45:38.193Z,123.75
2023-05-12T05:46:38.307Z,118.12
2023-05-12T05:47:38.466Z,123.75
2023-05-12T05:48:38.597Z,123.75
2023-05-12T05:49:38.681Z,123.75
2023-05-12T05:50:38.852Z,123.75
2023-05-12T05:51:38.948Z,123.75
2023-05-12T05:52:39.107Z,135.00
2023-05-12T05:53:39.228Z,146.25
2023-05-12T05:54:39.295Z,163.12
2023-05-12T05:55:39.435Z,185.62
2023-05-12T05:56:39.560Z,196.88
2023-05-12T05:57:39.700Z,208.12
2023-05-12T05:58:39.864Z,236.25
2023-05-12T05:59:39.950Z,253.12
2023-05-12T06:00:40.086Z,225.00
2023-05-12T06:01:40.262Z,191.25
2023-05-12T06:02:40.554Z,191.25
2023-05-12T06:03:40.525Z,191.25
2023-05-12T06:04:40.586Z,191.25
2023-05-12T06:05:40.749Z,191.25
2023-05-12T06:06:40.868Z,180.00
2023-05-12T06:07:41.006Z,174.38
2023-05-12T06:08:41.178Z,168.75
2023-05-12T06:09:41.266Z,168.75
2023-05-12T06:10:41.406Z,185.62
2023-05-12T06:11:41.530Z,168.75
2023-05-12T06:12:41.719Z,140.62
2023-05-12T06:13:43.164Z,135.00
2023-05-12T06:14:41.929Z,140.62
2023-05-12T06:15:42.067Z,157.50
2023-05-12T06:16:42.237Z,180.00
2023-05-12T06:17:42.365Z,191.25
2023-05-12T06:18:42.481Z,191.25
2023-05-12T06:19:42.570Z,191.25
2023-05-12T06:20:42.704Z,191.25
2023-05-12T06:21:42.824Z,163.12
2023-05-12T06:22:42.956Z,146.25
2023-05-12T06:23:43.111Z,157.50
2023-05-12T06:24:43.301Z,202.50
2023-05-12T06:25:43.384Z,208.12
2023-05-12T06:26:43.486Z,208.12
2023-05-12T06:27:43.627Z,219.38
2023-05-12T06:28:43.763Z,208.12
2023-05-12T06:29:43.943Z,202.50
2023-05-12T06:30:43.993Z,208.12
2023-05-12T06:31:44.176Z,208.12
2023-05-12T06:32:44.293Z,168.75
2023-05-12T06:33:44.456Z,174.38
2023-05-12T06:34:44.569Z,180.00
2023-05-12T06:35:44.699Z,140.62
2023-05-12T06:36:44.851Z,123.75
2023-05-12T06:37:44.936Z,112.50
2023-05-12T06:38:45.071Z,123.75
2023-05-12T06:39:45.199Z,157.50
2023-05-12T06:40:45.332Z,163.12
2023-05-12T06:41:45.458Z,196.88
2023-05-12T06:42:45.614Z,225.00
2023-05-12T06:43:45.826Z,258.75
2023-05-12T06:44:45.886Z,241.88
2023-05-12T06:45:46.016Z,348.75
2023-05-12T06:46:46.249Z,472.50
2023-05-12T06:47:46.366Z,466.88
2023-05-12T06:48:46.480Z,478.12
2023-05-12T06:49:46.667Z,438.75
2023-05-12T06:50:46.844Z,399.38
2023-05-12T06:51:46.992Z,382.50
2023-05-12T06:52:46.967Z,393.75
2023-05-12T06:53:47.107Z,410.62
2023-05-12T06:54:47.286Z,393.75
2023-05-12T06:55:47.385Z,354.38
2023-05-12T06:56:47.585Z,365.62
2023-05-12T06:57:47.768Z,348.75
2023-05-12T06:58:47.704Z,371.25
2023-05-12T06:59:47.857Z,326.25
2023-05-12T07:00:47.985Z,331.88
2023-05-12T07:01:48.190Z,331.88
2023-05-12T07:02:48.294Z,315.00
2023-05-12T07:03:48.438Z,326.25
2023-05-12T07:04:48.550Z,326.25
2023-05-12T07:05:48.710Z,376.88
2023-05-12T07:06:48.846Z,382.50
2023-05-12T07:07:48.950Z,388.12
2023-05-12T07:08:49.050Z,433.12
2023-05-12T07:09:49.152Z,450.00
2023-05-12T07:10:49.254Z,489.38
2023-05-12T07:11:50.957Z,500.62
2023-05-12T07:12:49.524Z,455.62
2023-05-12T07:13:49.656Z,427.50
2023-05-12T07:14:49.803Z,393.75
2023-05-12T07:15:49.906Z,483.75
2023-05-12T07:16:50.160Z,489.38
2023-05-12T07:17:50.294Z,416.25
2023-05-12T07:18:50.368Z,354.38
2023-05-12T07:19:50.443Z,270.00
2023-05-12T07:20:50.582Z,247.50
2023-05-12T07:21:50.707Z,258.75
2023-05-12T07:22:50.870Z,241.88
2023-05-12T07:23:50.967Z,230.62
2023-05-12T07:24:51.137Z,219.38
2023-05-12T07:25:51.248Z,202.50
2023-05-12T07:26:51.355Z,230.62
2023-05-12T07:27:51.510Z,213.75
2023-05-12T07:28:51.558Z,241.88
2023-05-12T07:29:51.676Z,236.25
2023-05-12T07:30:51.878Z,258.75
2023-05-12T07:31:52.120Z,270.00
2023-05-12T07:32:52.186Z,258.75
2023-05-12T07:33:52.221Z,247.50
2023-05-12T07:34:52.357Z,247.50
2023-05-12T07:35:52.476Z,191.25
2023-05-12T07:36:52.623Z,168.75
2023-05-12T07:37:52.727Z,185.62
2023-05-12T07:38:52.853Z,185.62
2023-05-12T07:39:52.940Z,213.75
2023-05-12T07:40:53.078Z,208.12
2023-05-12T07:41:53.235Z,180.00
2023-05-12T07:42:53.394Z,163.12
2023-05-12T07:43:53.497Z,236.25
2023-05-12T07:44:53.638Z,191.25
2023-05-12T07:45:53.788Z,225.00
2023-05-12T07:46:53.903Z,191.25
2023-05-12T07:47:54.106Z,180.00
2023-05-12T07:48:54.148Z,180.00
2023-05-12T07:49:54.279Z,225.00
2023-05-12T07:50:54.401Z,264.38
2023-05-12T07:51:54.545Z,236.25
2023-05-12T07:52:54.674Z,270.00
2023-05-12T07:53:54.814Z,331.88
2023-05-12T07:54:54.911Z,236.25
2023-05-12T07:55:55.011Z,281.25
2023-05-12T07:56:55.178Z,264.38
2023-05-12T07:57:55.290Z,309.38
2023-05-12T07:58:55.418Z,337.50
2023-05-12T07:59:55.515Z,258.75
2023-05-12T08:00:55.790Z,225.00
2023-05-12T08:01:55.824Z,202.50
2023-05-12T08:02:56.110Z,270.00
2023-05-12T08:03:56.104Z,275.62
2023-05-12T08:04:56.149Z,281.25
2023-05-12T08:05:56.256Z,303.75
2023-05-12T08:06:56.426Z,286.88
2023-05-12T08:07:56.556Z,326.25
2023-05-12T08:08:56.654Z,309.38
2023-05-12T08:09:56.747Z,309.38
2023-05-12T08:10:57.305Z,275.62
2023-05-12T08:11:57.030Z,264.38
2023-05-12T08:12:57.111Z,202.50
2023-05-12T08:13:57.219Z,208.12
2023-05-12T08:14:57.418Z,230.62
2023-05-12T08:15:57.482Z,202.50
2023-05-12T08:16:57.705Z,219.38
2023-05-12T08:17:57.806Z,241.88
2023-05-12T08:18:58.017Z,247.50
2023-05-12T08:19:58.088Z,253.12
2023-05-12T08:20:58.125Z,247.50
2023-05-12T08:21:58.236Z,270.00
2023-05-12T08:22:58.346Z,264.38
2023-05-12T08:23:58.538Z,309.38
2023-05-12T08:24:58.620Z,303.75
2023-05-12T08:25:58.727Z,376.88
2023-05-12T08:26:58.816Z,343.12
2023-05-12T08:27:58.961Z,309.38
2023-05-12T08:28:59.068Z,337.50
2023-05-12T08:29:59.168Z,483.75
2023-05-12T08:30:59.272Z,585.00
2023-05-12T08:31:59.411Z,601.88
2023-05-12T08:32:59.491Z,832.50
2023-05-12T08:34:09.649Z,725.62
2023-05-12T08:35:00.752Z,607.50
2023-05-12T08:35:59.876Z,450.00
2023-05-12T08:37:00.027Z,607.50
2023-05-12T08:38:00.150Z,669.38
2023-05-12T08:39:00.232Z,894.38
2023-05-12T08:40:00.324Z,787.50
2023-05-12T08:41:00.486Z,759.38
2023-05-12T08:42:00.615Z,826.88
2023-05-12T08:43:01.849Z,753.75
2023-05-12T08:44:00.909Z,663.75
2023-05-12T08:45:00.995Z,540.00
2023-05-12T08:46:01.063Z,466.88
2023-05-12T08:47:01.224Z,489.38
2023-05-12T08:48:01.294Z,680.62
2023-05-12T08:49:01.376Z,669.38
2023-05-12T08:50:01.490Z,787.50
2023-05-12T08:51:01.600Z,1597.50
2023-05-12T08:52:01.691Z,1136.25
2023-05-12T08:53:01.959Z,866.25
2023-05-12T08:54:01.989Z,1597.50
2023-05-12T08:55:03.525Z,838.12
2023-05-12T08:57:09.626Z,1035.00
2023-05-12T08:58:02.424Z,1175.62
2023-05-12T08:59:02.575Z,1395.00
2023-05-12T09:00:02.756Z,1800.00
2023-05-12T09:01:02.945Z,1316.25
2023-05-12T09:02:03.026Z,2345.62
2023-05-12T09:03:03.262Z,860.62
2023-05-12T09:04:03.352Z,686.25
2023-05-12T09:05:03.503Z,1490.62
2023-05-12T09:06:03.537Z,1411.88
2023-05-12T09:07:03.640Z,1215.00
2023-05-12T09:08:03.759Z,765.00
2023-05-12T09:09:03.917Z,753.75
2023-05-12T09:10:03.978Z,663.75
2023-05-12T09:11:04.089Z,877.50
2023-05-12T09:12:04.220Z,652.50
2023-05-12T09:13:04.405Z,613.12
2023-05-12T09:14:04.582Z,613.12
2023-05-12T09:15:04.632Z,2008.12
2023-05-12T09:16:04.767Z,1096.88
2023-05-12T09:17:04.900Z,1524.38
2023-05-12T09:18:05.019Z,928.12
2023-05-12T09:19:06.858Z,1091.25
2023-05-12T09:20:05.204Z,1361.25
2023-05-12T09:21:05.263Z,1029.38
2023-05-12T09:22:05.404Z,1355.62
2023-05-12T09:23:05.526Z,1248.75
2023-05-12T09:24:05.612Z,3065.62
2023-05-12T09:25:05.774Z,916.88
2023-05-12T09:26:05.856Z,1603.12
2023-05-12T09:27:05.991Z,1428.75
2023-05-12T09:28:06.074Z,1912.50
2023-05-12T09:29:06.226Z,2610.00
2023-05-12T09:30:06.343Z,933.75
2023-05-12T09:31:06.560Z,2430.00
2023-05-12T09:32:06.794Z,1305.00
2023-05-12T09:33:06.837Z,1383.75
2023-05-12T09:34:06.917Z,871.88
2023-05-12T09:35:07.018Z,618.75
2023-05-12T09:36:07.175Z,663.75
2023-05-12T09:37:07.365Z,1333.12
2023-05-12T09:38:07.396Z,849.38
2023-05-12T09:39:07.532Z,517.50
2023-05-12T09:40:07.647Z,343.12
2023-05-12T09:41:07.755Z,348.75
2023-05-12T09:42:07.868Z,393.75
2023-05-12T09:43:08.045Z,450.00
2023-05-12T09:44:08.069Z,540.00
2023-05-12T09:45:09.238Z,765.00
2023-05-12T09:46:08.404Z,866.25
2023-05-12T09:47:08.559Z,793.12
2023-05-12T09:48:08.739Z,759.38
2023-05-12T09:49:08.730Z,1023.75
2023-05-12T09:50:08.862Z,1237.50
2023-05-12T09:51:08.928Z,1822.50
2023-05-12T09:52:09.108Z,1479.38
2023-05-12T09:53:09.231Z,1147.50
2023-05-12T09:54:09.316Z,922.50
2023-05-12T09:55:09.472Z,922.50
2023-05-12T09:56:09.565Z,871.88
2023-05-12T09:57:09.656Z,928.12
2023-05-12T09:58:09.745Z,1395.00
2023-05-12T09:59:09.897Z,1265.62
2023-05-12T10:00:20.218Z,1327.50
2023-05-12T10:01:21.579Z,905.62
2023-05-12T10:02:11.331Z,714.38
2023-05-12T10:03:10.522Z,680.62
2023-05-12T10:04:10.577Z,1293.75
2023-05-12T10:05:10.774Z,990.00
2023-05-12T10:06:10.798Z,950.62
2023-05-12T10:07:10.955Z,984.38
2023-05-12T10:08:11.042Z,1074.38
2023-05-12T10:09:11.193Z,900.00
2023-05-12T10:10:11.350Z,945.00
2023-05-12T10:11:11.400Z,1220.62
2023-05-12T10:12:11.608Z,1203.75
2023-05-12T10:13:11.712Z,1051.88
2023-05-12T10:14:11.769Z,1006.88
2023-05-12T10:15:11.893Z,939.38
2023-05-12T10:16:11.983Z,843.75
2023-05-12T10:17:12.141Z,855.00
2023-05-12T10:18:12.289Z,1119.38
2023-05-12T10:19:12.399Z,1321.88
2023-05-12T10:20:12.488Z,1873.12
2023-05-12T10:21:12.587Z,1985.62
2023-05-12T10:22:12.700Z,1456.88
2023-05-12T10:23:12.926Z,3003.75
2023-05-12T10:24:12.933Z,2081.25
2023-05-12T10:25:13.042Z,1552.50
2023-05-12T10:26:13.154Z,1580.62
2023-05-12T10:27:13.248Z,1029.38
2023-05-12T10:28:13.425Z,855.00
2023-05-12T10:29:13.571Z,950.62
2023-05-12T10:30:13.686Z,2655.00
2023-05-12T10:31:13.867Z,2688.75
2023-05-12T10:32:13.912Z,2851.88
2023-05-12T10:33:14.011Z,2424.38
2023-05-12T10:34:14.129Z,2390.62
2023-05-12T10:35:14.210Z,798.75
2023-05-12T10:36:14.317Z,1006.88
2023-05-12T10:37:14.413Z,860.62
2023-05-12T10:38:14.627Z,2745.00
2023-05-12T10:39:14.694Z,2593.12
2023-05-12T10:40:14.806Z,2666.25
2023-05-12T10:41:14.981Z,2638.12
2023-05-12T10:42:15.070Z,888.75
2023-05-12T10:43:15.285Z,905.62
2023-05-12T10:44:15.348Z,967.50
2023-05-12T10:45:15.442Z,956.25
2023-05-12T10:46:15.655Z,1063.12
2023-05-12T10:47:15.714Z,2604.38
2023-05-12T10:48:15.803Z,1136.25
2023-05-12T10:49:16.016Z,1980.00
2023-05-12T10:50:16.115Z,866.25
2023-05-12T10:51:16.235Z,714.38
2023-05-12T10:52:16.312Z,579.38
2023-05-12T10:53:16.440Z,624.38
2023-05-12T10:54:16.580Z,708.75
2023-05-12T10:55:16.756Z,765.00
2023-05-12T10:56:16.950Z,871.88
2023-05-12T10:57:18.506Z,1603.12
2023-05-12T10:58:17.370Z,2964.38
2023-05-12T10:59:17.686Z,1411.88
2023-05-12T11:00:17.623Z,1254.38
2023-05-12T11:01:17.751Z,2053.12
2023-05-12T11:02:18.449Z,1974.38
2023-05-12T11:03:18.836Z,1198.12
2023-05-12T11:04:17.932Z,1805.62
2023-05-12T11:05:18.182Z,877.50
2023-05-12T11:06:19.116Z,691.88
2023-05-12T11:07:18.925Z,787.50
2023-05-12T11:08:19.629Z,613.12
2023-05-12T11:09:19.677Z,753.75
2023-05-12T11:10:18.687Z,973.12
2023-05-12T11:11:18.638Z,2295.00
2023-05-12T11:12:18.717Z,2103.75
2023-05-12T11:13:18.838Z,601.88
2023-05-12T11:14:18.986Z,1968.75
2023-05-12T11:15:19.358Z,1411.88
2023-05-12T11:16:19.241Z,1749.38
2023-05-12T11:17:19.362Z,1653.75
2023-05-12T11:18:19.447Z,1726.88
2023-05-12T11:19:19.585Z,2261.25
2023-05-12T11:20:19.838Z,2221.88
2023-05-12T11:21:19.878Z,2210.62
2023-05-12T11:22:20.106Z,2401.88
2023-05-12T11:23:20.160Z,2570.62
2023-05-12T11:24:20.209Z,2570.62
2023-05-12T11:25:20.607Z,2227.50
2023-05-12T11:26:20.455Z,1980.00
2023-05-12T11:27:20.574Z,1591.88
2023-05-12T11:28:20.659Z,1901.25
2023-05-12T11:29:20.759Z,1102.50
2023-05-12T11:30:20.914Z,984.38
2023-05-12T11:31:21.012Z,1006.88
2023-05-12T11:32:21.104Z,1068.75
2023-05-12T11:33:21.214Z,1068.75
2023-05-12T11:34:21.333Z,1001.25
2023-05-12T11:35:21.661Z,1001.25
2023-05-12T11:36:21.843Z,855.00
2023-05-12T11:37:21.791Z,843.75
2023-05-12T11:38:21.842Z,877.50
2023-05-12T11:39:21.965Z,849.38
2023-05-12T11:40:22.135Z,770.62
2023-05-12T11:41:22.185Z,731.25
2023-05-12T11:42:25.120Z,815.62
2023-05-12T11:43:22.457Z,804.38
2023-05-12T11:44:22.498Z,967.50
2023-05-12T11:45:23.000Z,1063.12
2023-05-12T11:46:22.925Z,877.50
2023-05-12T11:47:22.896Z,905.62
2023-05-12T11:48:23.030Z,826.88
2023-05-12T11:49:23.128Z,714.38
2023-05-12T11:50:23.257Z,832.50
2023-05-12T11:51:23.373Z,973.12
2023-05-12T11:52:23.471Z,1063.12
2023-05-12T11:53:23.931Z,855.00
2023-05-12T11:54:23.673Z,821.25
2023-05-12T11:55:23.784Z,810.00
2023-05-12T11:56:23.910Z,1040.62
2023-05-12T11:57:24.035Z,781.88
2023-05-12T11:58:24.216Z,900.00
2023-05-12T11:59:24.256Z,1327.50
2023-05-12T12:00:24.889Z,1608.75
2023-05-12T12:01:24.485Z,1299.38
2023-05-12T12:02:24.650Z,781.88
2023-05-12T12:03:24.816Z,1001.25
2023-05-12T12:04:24.880Z,916.88
2023-05-12T12:05:24.983Z,691.88
2023-05-12T12:06:25.115Z,579.38
2023-05-12T12:07:25.254Z,635.62
2023-05-12T12:08:25.385Z,753.75
2023-05-12T12:09:25.541Z,630.00
2023-05-12T12:10:25.581Z,1783.12
2023-05-12T12:11:25.738Z,826.88
2023-05-12T12:12:25.840Z,798.75
2023-05-12T12:13:26.051Z,978.75
2023-05-12T12:14:26.068Z,1237.50
2023-05-12T12:15:26.203Z,1456.88
2023-05-12T12:16:26.357Z,1164.38
2023-05-12T12:17:26.473Z,1141.88
2023-05-12T12:18:26.611Z,1068.75
2023-05-12T12:19:26.686Z,950.62
2023-05-12T12:20:26.787Z,877.50
2023-05-12T12:21:26.898Z,871.88
2023-05-12T12:22:27.035Z,871.88
2023-05-12T12:23:27.252Z,826.88
2023-05-12T12:24:27.240Z,770.62
2023-05-12T12:25:27.341Z,736.88
2023-05-12T12:26:27.493Z,720.00
2023-05-12T12:27:27.596Z,725.62
2023-05-12T12:28:27.725Z,731.25
2023-05-12T12:29:27.791Z,697.50
2023-05-12T12:30:27.906Z,680.62
2023-05-12T12:31:28.074Z,635.62
2023-05-12T12:32:28.213Z,601.88
2023-05-12T12:33:28.271Z,613.12
2023-05-12T12:34:28.392Z,630.00
2023-05-12T12:35:28.477Z,669.38
2023-05-12T12:36:28.636Z,703.12
2023-05-12T12:37:28.728Z,725.62
2023-05-12T12:38:28.822Z,731.25
2023-05-12T12:39:28.981Z,731.25
2023-05-12T12:40:29.085Z,765.00
2023-05-12T12:41:29.226Z,798.75
2023-05-12T12:42:29.388Z,855.00
2023-05-12T12:43:29.545Z,950.62
2023-05-12T12:44:29.606Z,1085.62
2023-05-12T12:45:29.702Z,1220.62
2023-05-12T12:46:29.839Z,1310.62